createdAt,value
2023-04-28T00:09:57.017Z,75.08
2023-04-28T00:20:18.614Z,77.35
2023-04-28T00:30:40.024Z,75.20
2023-04-28T00:41:01.629Z,76.28
2023-04-28T00:51:23.343Z,76.48
2023-04-28T01:01:46.929Z,76.79
2023-04-28T01:12:08.476Z,76.65
2023-04-28T01:22:29.911Z,75.90
2023-04-28T01:32:51.293Z,76.32
2023-04-28T01:43:12.717Z,76.43
2023-04-28T01:53:34.099Z,76.33
2023-04-28T02:03:55.778Z,75.84
2023-04-28T02:14:17.879Z,76.35
2023-04-28T02:24:39.522Z,77.39
2023-04-28T02:35:00.941Z,76.19
2023-04-28T02:45:22.281Z,76.40
2023-04-28T02:55:43.665Z,76.62
2023-04-28T03:06:05.223Z,76.99
2023-04-28T03:16:26.619Z,76.58
2023-04-28T03:26:48.041Z,77.31
2023-04-28T03:37:09.403Z,76.81
2023-04-28T03:47:30.798Z,75.63
2023-04-28T03:57:52.272Z,75.87
2023-04-28T04:08:13.656Z,77.19
2023-04-28T04:18:35.003Z,76.02
2023-04-28T04:28:56.628Z,76.02
2023-04-28T04:39:17.982Z,75.40
2023-04-28T04:49:39.320Z,74.74
2023-04-28T05:00:00.697Z,75.62
2023-04-28T05:10:22.056Z,75.64
2023-04-28T05:20:43.406Z,74.01
2023-04-28T05:31:04.864Z,75.07
2023-04-28T05:41:26.245Z,74.79
2023-04-28T05:51:47.642Z,73.87
2023-04-28T06:02:09.043Z,73.13
2023-04-28T06:12:30.568Z,72.49
2023-04-28T06:22:52.066Z,73.05
2023-04-28T06:33:13.425Z,72.49
2023-04-28T06:43:34.955Z,73.17
2023-04-28T06:53:56.332Z,73.17
2023-04-28T07:04:18.205Z,73.01
2023-04-28T07:14:39.903Z,71.84
2023-04-28T07:25:01.318Z,71.45
2023-04-28T07:35:22.832Z,70.67
2023-04-28T07:45:45.962Z,70.43
2023-04-28T07:56:07.577Z,69.71
2023-04-28T08:06:29.086Z,68.98
2023-04-28T08:16:50.554Z,67.25
2023-04-28T08:27:12.501Z,67.19
2023-04-28T08:37:34.259Z,64.70
2023-04-28T08:47:56.859Z,66.03
2023-04-28T08:58:19.164Z,67.30
2023-04-28T09:08:40.688Z,66.44
2023-04-28T09:19:02.100Z,66.43
2023-04-28T09:29:23.712Z,66.94
2023-04-28T09:39:49.802Z,64.69
2023-04-28T09:50:14.776Z,65.96
2023-04-28T10:00:38.037Z,65.70
2023-04-28T10:10:59.736Z,65.77
2023-04-28T10:21:21.968Z,66.61
2023-04-28T10:32:03.316Z,66.82
2023-04-28T10:42:43.688Z,68.47
2023-04-28T10:53:05.143Z,67.93
2023-04-28T11:03:45.136Z,68.45
2023-04-28T11:14:19.049Z,68.34
2023-04-28T11:24:40.789Z,68.04
2023-04-28T11:35:04.329Z,67.82
2023-04-28T11:45:25.760Z,67.65
2023-04-28T11:55:47.142Z,68.18
2023-04-28T12:06:08.552Z,67.34
2023-04-28T12:16:43.135Z,68.05
2023-04-28T12:27:15.810Z,67.78
2023-04-28T12:37:38.928Z,67.42
2023-04-28T12:48:00.406Z,66.43
2023-04-28T12:58:21.980Z,66.82
2023-04-28T13:08:44.643Z,68.39
2023-04-28T13:19:09.549Z,67.81
2023-04-28T13:29:30.934Z,68.77
2023-04-28T13:39:52.630Z,68.32
2023-04-28T13:50:14.463Z,68.61
2023-04-28T14:00:37.522Z,67.95
2023-04-28T14:10:58.887Z,67.39
2023-04-28T14:21:20.561Z,66.89
2023-04-28T14:31:42.175Z,68.45
2023-04-28T14:42:03.937Z,72.95
2023-04-28T14:52:27.591Z,78.26
2023-04-28T15:02:49.109Z,80.31
2023-04-28T15:13:11.053Z,86.66
2023-04-28T15:23:32.442Z,82.52
2023-04-28T15:33:53.923Z,84.15
2023-04-28T15:44:15.450Z,84.96
2023-04-28T15:54:36.933Z,85.64
2023-04-28T16:05:02.541Z,79.95
2023-04-28T16:15:24.030Z,81.62
2023-04-28T16:25:45.494Z,82.55
2023-04-28T16:36:07.066Z,83.58
2023-04-28T16:46:28.546Z,84.62
2023-04-28T16:56:50.052Z,85.71
2023-04-28T17:07:11.642Z,86.67
2023-04-28T17:17:33.602Z,88.35
2023-04-28T17:27:54.995Z,87.25
2023-04-28T17:38:16.556Z,89.88
2023-04-28T17:48:38.151Z,91.72
2023-04-28T17:59:00.208Z,92.36
2023-04-28T18:09:21.633Z,92.11
2023-04-28T18:19:43.078Z,92.46
2023-04-28T18:30:04.610Z,92.79
2023-04-28T18:40:26.180Z,92.26
2023-04-28T18:50:48.636Z,93.06
2023-04-28T19:01:17.326Z,92.37
2023-04-28T19:11:38.706Z,92.82
2023-04-28T19:22:01.177Z,92.18
2023-04-28T19:32:22.599Z,94.20
2023-04-28T19:42:43.971Z,93.67
2023-04-28T19:53:05.447Z,93.29
2023-04-28T20:03:27.010Z,93.29
2023-04-28T20:13:48.617Z,94.89
2023-04-28T20:24:10.089Z,95.14
2023-04-28T20:34:31.669Z,93.73
2023-04-28T20:44:53.308Z,94.00
2023-04-28T20:55:14.659Z,93.91
2023-04-28T21:05:36.041Z,94.17
2023-04-28T21:15:57.567Z,93.14
2023-04-28T21:26:23.940Z,92.23
2023-04-28T21:36:45.303Z,92.60
2023-04-28T21:47:06.899Z,94.39
2023-04-28T21:57:28.305Z,93.32
2023-04-28T22:07:49.859Z,94.32
2023-04-28T22:18:11.280Z,93.19
2023-04-28T22:28:32.694Z,92.82
2023-04-28T22:38:54.608Z,93.20
2023-04-28T22:49:16.420Z,96.05
2023-04-28T22:59:37.770Z,93.25
2023-04-28T23:09:59.239Z,93.57
2023-04-28T23:20:20.723Z,92.63
2023-04-28T23:30:42.878Z,93.77
2023-04-28T23:41:06.241Z,92.93
2023-04-28T23:51:27.692Z,92.62
